Time;durP1;ratioP1;P1;durP2;ratioP2;P2;SDS_P1;SDS_P2;PMS_P1;PMS_P2;Temp;Humidity;BMP_temperature;BMP_pressure;BME280_temperature;BME280_humidity;BME280_pressure;Samples;Min_cycle;Max_cycle;Signal;HPM_P1;HPM_P2
2022/12/08 00:02:12;;;;;;;;;;;;;;;2.80;100.00;101092.34;5082681;28;20264;-63
2022/12/08 00:09:20;;;;;;;;;;;;;;;2.81;100.00;101085.31;5081942;28;19924;-62
2022/12/08 00:10:07;;;;;;;;;;;;;;;2.81;100.00;101074.84;5082966;28;20034;-64
2022/12/08 00:12:32;;;;;;;;;;;;;;;2.82;100.00;101079.13;5085513;28;20027;-62
2022/12/08 00:14:57;;;;;;;;;;;;;;;2.80;100.00;101071.38;5083127;28;19920;-63
2022/12/08 00:17:23;;;;;;;;;;;;;;;2.80;100.00;101068.75;5085043;28;19924;-63
2022/12/08 00:19:49;;;;;;;;;;;;;;;2.79;100.00;101064.47;5086452;28;20006;-63
2022/12/08 00:22:14;;;;;;;;;;;;;;;2.78;100.00;101064.56;5084912;28;20387;-62
2022/12/08 00:24:40;;;;;;;;;;;;;;;2.79;100.00;101063.63;5082034;28;19930;-62
2022/12/08 00:27:06;;;;;;;;;;;;;;;2.78;100.00;101056.72;5087284;28;19936;-63
2022/12/08 00:29:31;;;;;;;;;;;;;;;2.75;100.00;101052.53;5081027;28;19912;-63
2022/12/08 00:31:56;;;;;;;;;;;;;;;2.75;100.00;101056.94;5083429;28;20007;-63
2022/12/08 00:34:22;;;;;;;;;;;;;;;2.74;100.00;101056.09;5078176;28;20364;-63
2022/12/08 00:36:47;;;;;;;;;;;;;;;2.76;100.00;101058.59;5084151;28;20319;-63
2022/12/08 00:39:13;;;;;;;;;;;;;;;2.76;100.00;101054.19;5082887;28;19942;-62
2022/12/08 00:44:22;;;;;;;;;;;;;;;2.79;100.00;101043.47;5081455;28;19982;-62
2022/12/08 00:46:48;;;;;;;;;;;;;;;2.82;100.00;101041.56;5078418;28;20383;-64
2022/12/08 00:49:14;;;;;;;;;;;;;;;2.84;100.00;101047.53;5086691;28;19928;-62
2022/12/08 00:51:40;;;;;;;;;;;;;;;2.84;100.00;101035.25;5083869;28;19969;-63
2022/12/08 00:54:05;;;;;;;;;;;;;;;2.87;100.00;101037.66;5079089;28;19999;-62
2022/12/08 00:56:30;;;;;;;;;;;;;;;2.90;100.00;101032.19;5081896;28;19916;-62
2022/12/08 00:58:56;;;;;;;;;;;;;;;2.93;100.00;101029.34;5079526;28;19920;-62
2022/12/08 01:01:21;;;;;;;;;;;;;;;2.93;100.00;101029.34;5082511;28;20376;-63
2022/12/08 01:03:47;;;;;;;;;;;;;;;2.93;100.00;101029.34;5081174;28;20053;-62
2022/12/08 01:06:12;;;;;;;;;;;;;;;2.97;100.00;101022.06;5079528;28;19924;-62
2022/12/08 01:08:37;;;;;;;;;;;;;;;2.96;100.00;101031.72;5080378;28;20017;-63
2022/12/08 01:11:04;;;;;;;;;;;;;;;3.00;100.00;101024.44;5084248;28;19924;-63
2022/12/08 01:13:29;;;;;;;;;;;;;;;2.99;100.00;101026.25;5083067;28;19968;-63
2022/12/08 01:15:54;;;;;;;;;;;;;;;2.97;100.00;101020.28;5081280;28;19916;-62
2022/12/08 01:18:19;;;;;;;;;;;;;;;2.97;100.00;101027.31;5077404;28;19994;-63
2022/12/08 01:20:45;;;;;;;;;;;;;;;2.98;100.00;101026.34;5084319;28;19916;-62
2022/12/08 01:23:10;;;;;;;;;;;;;;;2.99;100.00;101028.88;5081703;28;20381;-63
2022/12/08 01:25:35;;;;;;;;;;;;;;;3.00;100.00;101024.44;5083867;28;19920;-63
2022/12/08 01:28:00;;;;;;;;;;;;;;;3.01;100.00;101028.75;5086985;28;19923;-62
2022/12/08 01:30:26;;;;;;;;;;;;;;;3.02;100.00;101026.00;5081792;28;19916;-62
2022/12/08 01:32:51;;;;;;;;;;;;;;;3.01;100.00;101021.72;5082748;28;19919;-63
2022/12/08 01:35:16;;;;;;;;;;;;;;;3.02;100.00;101017.28;5087784;28;19923;-63
2022/12/08 01:37:41;;;;;;;;;;;;;;;3.00;100.00;101003.47;5087891;28;20014;-63
2022/12/08 01:40:07;;;;;;;;;;;;;;;3.00;100.00;101008.72;5086822;28;19916;-63
2022/12/08 01:42:33;;;;;;;;;;;;;;;2.98;100.00;101006.22;5080266;28;19928;-63
2022/12/08 01:45:03;;;;;;;;;;;;;;;2.96;100.00;101002.88;5079064;28;20377;-62
2022/12/08 01:47:32;;;;;;;;;;;;;;;2.97;100.00;100999.28;5086545;28;19920;-62
2022/12/08 01:49:58;;;;;;;;;;;;;;;2.94;100.00;100996.91;5083120;28;19920;-63
2022/12/08 01:52:30;;;;;;;;;;;;;;;2.94;100.00;100998.69;5081508;28;19931;-62
2022/12/08 01:54:59;;;;;;;;;;;;;;;2.93;100.00;101002.28;5085751;28;19962;-63
2022/12/08 01:57:29;;;;;;;;;;;;;;;2.93;100.00;100995.25;5089411;28;19916;-63
2022/12/08 01:59:59;;;;;;;;;;;;;;;2.93;100.00;100987.38;5089586;28;19916;-64
2022/12/08 02:02:28;;;;;;;;;;;;;;;2.94;100.00;100982.97;5082332;28;19917;-62
2022/12/08 02:04:53;;;;;;;;;;;;;;;2.94;100.00;100981.16;5084114;28;20019;-65
2022/12/08 02:07:19;;;;;;;;;;;;;;;2.94;100.00;100981.16;5082101;28;20038;-65
2022/12/08 02:09:45;;;;;;;;;;;;;;;2.95;100.00;100974.97;5088792;28;19916;-63
2022/12/08 02:12:10;;;;;;;;;;;;;;;2.96;100.00;100981.06;5083133;28;19912;-64
2022/12/08 02:14:35;;;;;;;;;;;;;;;2.91;100.00;100962.22;5086053;28;19927;-62
2022/12/08 02:17:08;;;;;;;;;;;;;;;2.93;100.00;100979.50;5084031;28;19976;-62
2022/12/08 02:19:48;;;;;;;;;;;;;;;2.93;100.00;100973.41;5083019;28;19923;-62
2022/12/08 02:22:13;;;;;;;;;;;;;;;2.94;100.00;100961.97;5082123;28;19920;-63
2022/12/08 02:24:44;;;;;;;;;;;;;;;2.94;100.00;100968.06;5078625;28;19946;-63
2022/12/08 02:27:12;;;;;;;;;;;;;;;2.92;100.00;100964.72;5081780;28;20399;-62
2022/12/08 02:29:55;;;;;;;;;;;;;;;2.92;100.00;100950.75;5090204;28;20425;-63
2022/12/08 02:32:41;;;;;;;;;;;;;;;2.91;100.00;100951.72;5083106;28;19923;-63
2022/12/08 02:35:12;;;;;;;;;;;;;;;2.92;100.00;100943.72;5083700;28;20391;-63
2022/12/08 02:37:46;;;;;;;;;;;;;;;2.92;100.00;100950.75;5083704;28;20398;-63
2022/12/08 02:40:11;;;;;;;;;;;;;;;2.91;100.00;100947.31;5085468;28;19923;-63
2022/12/08 02:42:48;;;;;;;;;;;;;;;2.90;100.00;100940.41;5089155;28;19920;-62
2022/12/08 02:45:18;;;;;;;;;;;;;;;2.92;100.00;100940.28;5084340;28;19924;-64
2022/12/08 02:47:43;;;;;;;;;;;;;;;2.86;100.00;100925.00;5090138;28;19924;-65
2022/12/08 02:50:09;;;;;;;;;;;;;;;2.90;100.00;100932.53;5090189;28;19913;-63
2022/12/08 02:52:38;;;;;;;;;;;;;;;2.91;100.00;100935.97;5088002;28;20469;-62
2022/12/08 02:55:06;;;;;;;;;;;;;;;2.91;100.00;100930.75;5087978;28;19931;-63
2022/12/08 02:57:41;;;;;;;;;;;;;;;2.94;100.00;100946.22;5087070;28;20003;-65
2022/12/08 03:00:12;;;;;;;;;;;;;;;2.97;100.00;100941.59;5085464;28;19916;-63
2022/12/08 03:02:44;;;;;;;;;;;;;;;3.00;100.00;100946.59;5082906;28;19972;-63
2022/12/08 03:05:15;;;;;;;;;;;;;;;3.01;100.00;100947.41;5084799;28;19917;-65
2022/12/08 03:07:52;;;;;;;;;;;;;;;3.02;100.00;100939.44;5082926;28;19967;-62
2022/12/08 03:10:24;;;;;;;;;;;;;;;3.05;100.00;100930.47;5083345;28;20007;-63
2022/12/08 03:12:57;;;;;;;;;;;;;;;3.07;100.00;100928.56;5085390;28;20439;-64
2022/12/08 03:15:22;;;;;;;;;;;;;;;3.06;100.00;100919.88;5085679;28;19916;-64
2022/12/08 03:17:50;;;;;;;;;;;;;;;3.06;100.00;100919.03;5087978;28;19950;-62
2022/12/08 03:20:17;;;;;;;;;;;;;;;3.04;100.00;100913.06;5084576;28;19923;-62
2022/12/08 03:22:43;;;;;;;;;;;;;;;3.02;100.00;100904.50;5088272;28;19912;-62
2022/12/08 03:25:12;;;;;;;;;;;;;;;3.02;100.00;100902.69;5078752;28;19974;-63
2022/12/08 03:27:37;;;;;;;;;;;;;;;3.03;100.00;100911.41;5086468;28;19971;-62
2022/12/08 03:30:03;;;;;;;;;;;;;;;3.00;100.00;100896.75;5083947;28;19924;-62
2022/12/08 03:32:31;;;;;;;;;;;;;;;3.01;100.00;100894.94;5083589;28;20387;-63
2022/12/08 03:34:57;;;;;;;;;;;;;;;3.01;100.00;100895.78;5086106;28;21128;-65
2022/12/08 03:37:23;;;;;;;;;;;;;;;3.01;100.00;100893.16;5087705;28;19973;-63
2022/12/08 03:39:48;;;;;;;;;;;;;;;3.00;100.00;100888.88;5083086;28;19924;-62
2022/12/08 03:42:13;;;;;;;;;;;;;;;3.02;100.00;100891.38;5086992;28;19916;-63
2022/12/08 03:44:38;;;;;;;;;;;;;;;3.01;100.00;100881.84;5086126;28;20296;-62
2022/12/08 03:47:03;;;;;;;;;;;;;;;3.02;100.00;100884.34;5082812;28;19920;-62
2022/12/08 03:49:28;;;;;;;;;;;;;;;3.03;100.00;100880.75;5085842;28;19935;-65
2022/12/08 03:51:54;;;;;;;;;;;;;;;3.04;100.00;100879.81;5083012;28;20368;-62
2022/12/08 03:54:19;;;;;;;;;;;;;;;3.08;100.00;100873.34;5082915;28;19957;-64
2022/12/08 03:56:44;;;;;;;;;;;;;;;3.09;100.00;100876.81;5082254;28;19916;-64
2022/12/08 03:59:09;;;;;;;;;;;;;;;3.08;100.00;100867.28;5084339;28;20547;-63
2022/12/08 04:01:35;;;;;;;;;;;;;;;3.09;100.00;100868.94;5084281;28;19970;-63
2022/12/08 04:04:00;;;;;;;;;;;;;;;3.10;100.00;100870.59;5086408;28;19916;-62
2022/12/08 04:06:25;;;;;;;;;;;;;;;3.16;100.00;100872.75;5085957;28;19955;-64
2022/12/08 04:08:50;;;;;;;;;;;;;;;3.14;100.00;100868.56;5087268;28;19920;-62
2022/12/08 04:11:15;;;;;;;;;;;;;;;3.14;100.00;100861.53;5083316;28;19916;-63
2022/12/08 04:13:41;;;;;;;;;;;;;;;3.15;100.00;100860.56;5085785;28;20287;-62
2022/12/08 04:16:06;;;;;;;;;;;;;;;3.15;100.00;100852.69;5082285;28;20291;-63
2022/12/08 04:18:32;;;;;;;;;;;;;;;3.14;100.00;100852.81;5082242;28;20007;-64
2022/12/08 04:20:57;;;;;;;;;;;;;;;3.15;100.00;100847.47;5086298;28;19920;-64
2022/12/08 04:23:23;;;;;;;;;;;;;;;3.13;100.00;100852.00;5081751;28;19967;-63
2022/12/08 04:25:49;;;;;;;;;;;;;;;3.18;100.00;100852.50;5084871;28;19920;-65
2022/12/08 04:28:15;;;;;;;;;;;;;;;3.15;100.00;100850.06;5086566;28;19974;-62
2022/12/08 04:30:40;;;;;;;;;;;;;;;3.17;100.00;100845.53;5082904;28;20403;-63
2022/12/08 04:33:05;;;;;;;;;;;;;;;3.19;100.00;100855.94;5085531;28;19920;-62
2022/12/08 04:35:30;;;;;;;;;;;;;;;3.20;100.00;100853.19;5076498;28;19924;-62
2022/12/08 04:37:56;;;;;;;;;;;;;;;3.20;100.00;100858.44;5079847;28;19930;-62
2022/12/08 04:40:21;;;;;;;;;;;;;;;3.20;100.00;100857.59;5080727;28;19995;-62
2022/12/08 04:42:46;;;;;;;;;;;;;;;3.21;100.00;100852.25;5085153;28;20026;-64
2022/12/08 04:45:11;;;;;;;;;;;;;;;3.21;100.00;100849.63;5085032;28;19916;-62
2022/12/08 04:47:37;;;;;;;;;;;;;;;3.21;100.00;100849.63;5086356;28;19960;-62
2022/12/08 04:50:02;;;;;;;;;;;;;;;3.18;100.00;100842.00;5083008;28;20482;-62
2022/12/08 04:52:28;;;;;;;;;;;;;;;3.19;100.00;100834.94;5085115;28;19917;-62
2022/12/08 04:54:53;;;;;;;;;;;;;;;3.22;100.00;100846.03;5087134;28;19924;-63
2022/12/08 04:57:18;;;;;;;;;;;;;;;3.20;100.00;100832.19;5085288;28;20016;-66
2022/12/08 04:59:43;;;;;;;;;;;;;;;3.17;100.00;100848.16;5079749;28;20291;-64
2022/12/08 05:02:09;;;;;;;;;;;;;;;3.19;100.00;100848.06;5081897;28;19991;-64
2022/12/08 05:04:34;;;;;;;;;;;;;;;3.15;100.00;100841.38;5079892;28;20403;-62
2022/12/08 05:06:59;;;;;;;;;;;;;;;3.14;100.00;100843.16;5083190;28;20299;-63
2022/12/08 05:09:24;;;;;;;;;;;;;;;3.12;100.00;100845.06;5082973;28;20407;-63
2022/12/08 05:11:49;;;;;;;;;;;;;;;3.11;100.00;100853.91;5086421;28;19962;-62
2022/12/08 05:14:15;;;;;;;;;;;;;;;3.09;100.00;100855.81;5087096;28;19916;-62
2022/12/08 05:16:41;;;;;;;;;;;;;;;3.01;100.00;100852.97;5084694;28;19927;-62
2022/12/08 05:19:06;;;;;;;;;;;;;;;2.92;100.00;100840.59;5095860;28;20053;-62
2022/12/08 05:21:31;;;;;;;;;;;;;;;2.88;100.00;100844.41;5082322;28;19916;-63
2022/12/08 05:23:57;;;;;;;;;;;;;;;2.85;100.00;100839.41;5087225;28;19928;-62
2022/12/08 05:26:22;;;;;;;;;;;;;;;2.87;100.00;100846.19;5079164;28;20375;-63
2022/12/08 05:28:47;;;;;;;;;;;;;;;2.88;100.00;100841.78;5088783;28;20407;-62
2022/12/08 05:31:13;;;;;;;;;;;;;;;2.85;100.00;100834.16;5083228;28;19916;-62
2022/12/08 05:33:39;;;;;;;;;;;;;;;2.88;100.00;100841.78;5088641;28;19912;-62
2022/12/08 05:36:04;;;;;;;;;;;;;;;2.87;100.00;100840.09;5087618;28;19912;-62
2022/12/08 05:38:29;;;;;;;;;;;;;;;2.86;100.00;100834.03;5088954;28;19950;-63
2022/12/08 05:40:54;;;;;;;;;;;;;;;2.84;100.00;100827.25;5086032;28;19912;-62
2022/12/08 05:43:20;;;;;;;;;;;;;;;2.83;100.00;100822.94;5082742;28;19923;-64
2022/12/08 05:45:45;;;;;;;;;;;;;;;2.85;100.00;100821.03;5083891;28;19946;-63
2022/12/08 05:48:10;;;;;;;;;;;;;;;2.84;100.00;100820.22;5084645;28;20026;-63
2022/12/08 05:50:35;;;;;;;;;;;;;;;2.82;100.00;100816.88;5091457;28;20376;-63
2022/12/08 05:53:00;;;;;;;;;;;;;;;2.85;100.00;100827.13;5085137;28;20007;-63
2022/12/08 05:55:25;;;;;;;;;;;;;;;2.86;100.00;100826.16;5083118;28;20336;-63
2022/12/08 05:57:51;;;;;;;;;;;;;;;2.90;100.00;100818.91;5088613;28;20005;-62
2022/12/08 06:00:16;;;;;;;;;;;;;;;2.91;100.00;100826.66;5090207;28;20299;-62
2022/12/08 06:02:42;;;;;;;;;;;;;;;2.89;100.00;100823.31;5084994;28;19966;-63
2022/12/08 06:05:07;;;;;;;;;;;;;;;2.87;100.00;100813.88;5080227;28;19962;-63
2022/12/08 06:07:32;;;;;;;;;;;;;;;2.85;100.00;100813.16;5083047;28;20327;-63
2022/12/08 06:09:57;;;;;;;;;;;;;;;2.80;100.00;100808.28;5085771;28;19967;-65
2022/12/08 06:12:23;;;;;;;;;;;;;;;2.82;100.00;100811.63;5084146;28;20387;-64
2022/12/08 06:14:48;;;;;;;;;;;;;;;2.85;100.00;100813.16;5081713;28;19920;-65
2022/12/08 06:17:13;;;;;;;;;;;;;;;2.84;100.00;100806.25;5088042;28;19923;-64
2022/12/08 06:19:38;;;;;;;;;;;;;;;2.83;100.00;100801.97;5083886;28;19931;-64
2022/12/08 06:22:03;;;;;;;;;;;;;;;2.85;100.00;100802.69;5091785;28;20346;-63
2022/12/08 06:24:29;;;;;;;;;;;;;;;2.84;100.00;100804.47;5085012;28;19965;-62
2022/12/08 06:26:54;;;;;;;;;;;;;;;2.85;100.00;100806.13;5096309;28;20324;-63
2022/12/08 06:29:19;;;;;;;;;;;;;;;2.85;100.00;100800.06;5081309;28;19922;-65
2022/12/08 06:31:44;;;;;;;;;;;;;;;2.87;100.00;100798.16;5085371;28;19961;-62
2022/12/08 06:34:10;;;;;;;;;;;;;;;2.85;100.00;100790.41;5082809;28;19918;-62
2022/12/08 06:36:35;;;;;;;;;;;;;;;2.85;100.00;100793.03;5085323;28;19950;-62
2022/12/08 06:39:01;;;;;;;;;;;;;;;2.87;100.00;100798.16;5089265;28;20418;-63
2022/12/08 06:41:26;;;;;;;;;;;;;;;2.87;100.00;100798.16;5083821;28;20303;-63
2022/12/08 06:43:54;;;;;;;;;;;;;;;2.86;100.00;100801.72;5090278;28;19974;-62
2022/12/08 06:46:19;;;;;;;;;;;;;;;2.86;100.00;100801.72;5091501;28;19916;-62
2022/12/08 06:48:45;;;;;;;;;;;;;;;2.86;100.00;100802.56;5084494;28;19912;-63
2022/12/08 06:51:14;;;;;;;;;;;;;;;2.86;100.00;100799.09;5089494;28;19965;-64
2022/12/08 06:53:40;;;;;;;;;;;;;;;2.86;100.00;100804.34;5085052;28;19935;-62
2022/12/08 06:56:05;;;;;;;;;;;;;;;2.91;100.00;100799.59;5086712;28;19916;-63
2022/12/08 06:58:31;;;;;;;;;;;;;;;2.88;100.00;100802.44;5088132;28;19920;-63
2022/12/08 07:00:56;;;;;;;;;;;;;;;2.90;100.00;100804.00;5079289;28;19931;-62
2022/12/08 07:03:21;;;;;;;;;;;;;;;2.93;100.00;100802.94;5078882;28;19923;-66
2022/12/08 07:05:46;;;;;;;;;;;;;;;2.94;100.00;100799.34;5082270;28;19931;-63
2022/12/08 07:08:11;;;;;;;;;;;;;;;2.94;100.00;100791.47;5080352;28;20155;-63
2022/12/08 07:10:37;;;;;;;;;;;;;;;2.94;100.00;100804.59;5077514;28;19927;-63
2022/12/08 07:13:03;;;;;;;;;;;;;;;2.95;100.00;100796.59;5083335;28;19928;-63
2022/12/08 07:15:28;;;;;;;;;;;;;;;3.01;100.00;100797.91;5080515;28;20002;-64
2022/12/08 07:17:53;;;;;;;;;;;;;;;2.99;100.00;100792.78;5081510;28;19931;-63
2022/12/08 07:20:18;;;;;;;;;;;;;;;2.97;100.00;100805.19;5089095;28;19919;-63
2022/12/08 07:22:50;;;;;;;;;;;;;;;2.97;100.00;100797.31;5086216;28;19942;-63
2022/12/08 07:25:16;;;;;;;;;;;;;;;2.97;100.00;100794.69;5082345;28;19916;-63
2022/12/08 07:27:41;;;;;;;;;;;;;;;2.95;100.00;100809.72;5085088;28;19920;-62
2022/12/08 07:30:06;;;;;;;;;;;;;;;3.00;100.00;100810.19;5085205;28;19924;-63
2022/12/08 07:32:31;;;;;;;;;;;;;;;3.00;100.00;100804.09;5080692;28;19924;-62
2022/12/08 07:34:57;;;;;;;;;;;;;;;3.01;100.00;100811.84;5079753;28;20413;-63
2022/12/08 07:37:22;;;;;;;;;;;;;;;3.04;100.00;100800.28;5088834;28;19915;-63
2022/12/08 07:39:47;;;;;;;;;;;;;;;3.07;100.00;100802.66;5085952;28;20298;-63
2022/12/08 07:42:12;;;;;;;;;;;;;;;3.06;100.00;100809.69;5084255;28;19928;-63
2022/12/08 07:44:37;;;;;;;;;;;;;;;3.10;100.00;100805.84;5083995;28;19938;-62
2022/12/08 07:47:02;;;;;;;;;;;;;;;3.13;100.00;100812.63;5079924;28;19928;-62
2022/12/08 07:49:28;;;;;;;;;;;;;;;3.17;100.00;100815.84;5080380;28;19925;-63
2022/12/08 07:51:53;;;;;;;;;;;;;;;3.12;100.00;100816.22;5080594;28;20322;-63
2022/12/08 07:54:18;;;;;;;;;;;;;;;3.14;100.00;100819.56;5086189;28;19920;-63
2022/12/08 07:56:43;;;;;;;;;;;;;;;3.04;100.00;100816.00;5079051;28;20007;-63
2022/12/08 07:59:08;;;;;;;;;;;;;;;3.01;100.00;100816.25;5083158;28;19924;-62
2022/12/08 08:01:34;;;;;;;;;;;;;;;2.93;100.00;100810.78;5084030;28;20003;-64
2022/12/08 08:04:00;;;;;;;;;;;;;;;2.95;100.00;100808.88;5084746;28;19916;-63
2022/12/08 08:06:25;;;;;;;;;;;;;;;2.91;100.00;100810.09;5086351;28;19920;-62
2022/12/08 08:08:51;;;;;;;;;;;;;;;2.87;100.00;100806.84;5088846;28;19912;-62
2022/12/08 08:11:16;;;;;;;;;;;;;;;2.89;100.00;100812.84;5094361;28;19916;-63
2022/12/08 08:13:41;;;;;;;;;;;;;;;2.90;100.00;100818.91;5086647;28;20011;-63
2022/12/08 08:16:07;;;;;;;;;;;;;;;2.88;100.00;100812.94;5086201;28;19919;-64
2022/12/08 08:18:34;;;;;;;;;;;;;;;2.85;100.00;100816.63;5093169;28;19918;-63
2022/12/08 08:20:59;;;;;;;;;;;;;;;2.87;100.00;100817.34;5084818;28;19954;-62
2022/12/08 08:23:24;;;;;;;;;;;;;;;2.86;100.00;100815.66;5082872;28;19963;-62
2022/12/08 08:25:49;;;;;;;;;;;;;;;2.83;100.00;100823.78;5077490;28;19924;-63
2022/12/08 08:28:15;;;;;;;;;;;;;;;2.83;100.00;100822.94;5080948;28;19916;-63
2022/12/08 08:30:40;;;;;;;;;;;;;;;2.83;100.00;100826.41;5088205;28;19912;-62
2022/12/08 08:33:05;;;;;;;;;;;;;;;2.82;100.00;100814.25;5091151;28;20408;-62
2022/12/08 08:35:32;;;;;;;;;;;;;;;2.86;100.00;100822.72;5081657;28;19916;-62
2022/12/08 08:37:57;;;;;;;;;;;;;;;2.83;100.00;100821.16;5086875;28;20381;-63
2022/12/08 08:40:22;;;;;;;;;;;;;;;2.83;100.00;100820.31;5094251;28;19919;-62
2022/12/08 08:42:47;;;;;;;;;;;;;;;2.85;100.00;100823.66;5080544;28;19920;-62
2022/12/08 08:45:12;;;;;;;;;;;;;;;2.88;100.00;100818.16;5081292;28;19916;-63
2022/12/08 08:47:37;;;;;;;;;;;;;;;2.90;100.00;100817.13;5089467;28;19916;-62
2022/12/08 08:50:03;;;;;;;;;;;;;;;2.91;100.00;100817.94;5084918;28;19927;-62
2022/12/08 08:52:28;;;;;;;;;;;;;;;2.91;100.00;100816.16;5083631;28;20376;-62
2022/12/08 08:54:54;;;;;;;;;;;;;;;2.92;100.00;100819.63;5091220;28;19922;-62
2022/12/08 08:57:19;;;;;;;;;;;;;;;2.92;100.00;100823.06;5089019;28;19928;-62
2022/12/08 08:59:44;;;;;;;;;;;;;;;2.91;100.00;100823.19;5080180;28;19912;-62
2022/12/08 09:02:15;;;;;;;;;;;;;;;2.88;100.00;100818.16;5086558;28;19912;-62
2022/12/08 09:04:40;;;;;;;;;;;;;;;2.83;100.00;100829.03;5089269;28;20286;-63
2022/12/08 09:07:05;;;;;;;;;;;;;;;2.79;100.00;100817.94;5085085;28;20387;-62
2022/12/08 09:09:31;;;;;;;;;;;;;;;2.77;100.00;100811.16;5092631;28;19913;-62
2022/12/08 09:11:56;;;;;;;;;;;;;;;2.74;100.00;100814.03;5103368;28;20314;-63
2022/12/08 09:14:22;;;;;;;;;;;;;;;2.74;100.00;100808.78;5088430;28;19920;-62
2022/12/08 09:16:47;;;;;;;;;;;;;;;2.74;100.00;100807.00;5087320;28;20436;-62
2022/12/08 09:19:12;;;;;;;;;;;;;;;2.74;100.00;100809.63;5087033;28;19996;-62
2022/12/08 09:21:38;;;;;;;;;;;;;;;2.72;100.00;100811.53;5084726;28;19973;-64
2022/12/08 09:24:03;;;;;;;;;;;;;;;2.73;100.00;100807.13;5079543;28;20442;-64
2022/12/08 09:26:28;;;;;;;;;;;;;;;2.75;100.00;100800.78;5087568;28;19924;-63
2022/12/08 09:28:54;;;;;;;;;;;;;;;2.75;100.00;100802.59;5084398;28;19920;-62
2022/12/08 09:31:20;;;;;;;;;;;;;;;2.73;100.00;100807.13;5078654;28;19927;-63
2022/12/08 09:33:46;;;;;;;;;;;;;;;2.72;100.00;100806.28;5079780;28;20003;-62
2022/12/08 09:36:12;;;;;;;;;;;;;;;2.75;100.00;100805.22;5082270;28;20015;-63
2022/12/08 09:38:37;;;;;;;;;;;;;;;2.75;100.00;100798.19;5079781;28;19970;-63
2022/12/08 09:41:23;;;;;;;;;;;;;;;2.77;100.00;100804.13;5077625;28;19923;-62
2022/12/08 09:43:57;;;;;;;;;;;;;;;2.75;100.00;100792.94;5082792;28;19927;-63
2022/12/08 09:46:25;;;;;;;;;;;;;;;2.81;100.00;100812.59;5079519;28;20007;-62
2022/12/08 09:48:54;;;;;;;;;;;;;;;2.85;100.00;100800.06;5084944;28;19920;-63
2022/12/08 09:51:22;;;;;;;;;;;;;;;2.86;100.00;100802.56;5085111;28;20396;-62
2022/12/08 09:53:50;;;;;;;;;;;;;;;2.85;100.00;100798.28;5087391;28;19924;-62
2022/12/08 09:56:17;;;;;;;;;;;;;;;2.89;100.00;100801.47;5089405;28;19934;-62
2022/12/08 09:59:02;;;;;;;;;;;;;;;2.87;100.00;100791.13;5090011;28;19916;-63
2022/12/08 10:01:29;;;;;;;;;;;;;;;2.88;100.00;100803.28;5087229;28;19924;-64
2022/12/08 10:03:55;;;;;;;;;;;;;;;2.91;100.00;100804.84;5087096;28;19923;-63
2022/12/08 10:06:23;;;;;;;;;;;;;;;2.92;100.00;100811.75;5086970;28;19924;-63
2022/12/08 10:09:08;;;;;;;;;;;;;;;2.93;100.00;100802.94;5086802;28;20395;-64
2022/12/08 10:11:43;;;;;;;;;;;;;;;2.93;100.00;100806.38;5087931;28;19916;-62
2022/12/08 10:14:26;;;;;;;;;;;;;;;2.92;100.00;100802.09;5084954;28;20037;-63
2022/12/08 10:16:54;;;;;;;;;;;;;;;2.94;100.00;100800.19;5085750;28;19969;-62
2022/12/08 10:19:21;;;;;;;;;;;;;;;2.90;100.00;100792.69;5091581;28;19923;-62
2022/12/08 10:21:47;;;;;;;;;;;;;;;2.91;100.00;100787.31;5091349;28;19913;-63
2022/12/08 10:24:17;;;;;;;;;;;;;;;2.91;100.00;100797.81;5089612;28;19931;-62
2022/12/08 10:26:43;;;;;;;;;;;;;;;2.92;100.00;100786.34;5090420;28;19924;-62
2022/12/08 10:29:11;;;;;;;;;;;;;;;2.93;100.00;100782.78;5082822;28;19912;-63
2022/12/08 10:31:36;;;;;;;;;;;;;;;2.91;100.00;100783.84;5090721;28;19917;-62
2022/12/08 10:34:13;;;;;;;;;;;;;;;2.91;100.00;100789.09;5089793;28;19923;-62
2022/12/08 10:36:49;;;;;;;;;;;;;;;2.92;100.00;100785.53;5087580;28;19916;-62
2022/12/08 10:39:29;;;;;;;;;;;;;;;2.92;100.00;100785.53;5087884;28;19920;-63
2022/12/08 10:42:21;;;;;;;;;;;;;;;2.92;100.00;100785.53;5077486;28;19925;-62
2022/12/08 10:44:59;;;;;;;;;;;;;;;2.95;100.00;100780.03;5088057;28;19912;-64
2022/12/08 10:47:26;;;;;;;;;;;;;;;2.93;100.00;100768.84;5087650;28;19967;-62
2022/12/08 10:50:17;;;;;;;;;;;;;;;2.96;100.00;100779.06;5087159;28;19916;-63
2022/12/08 10:52:43;;;;;;;;;;;;;;;2.97;100.00;100775.50;5085536;28;19999;-62
2022/12/08 10:55:16;;;;;;;;;;;;;;;3.01;100.00;100782.16;5090103;28;20612;-63
2022/12/08 10:57:41;;;;;;;;;;;;;;;3.05;100.00;100778.31;5086584;28;19923;-63
2022/12/08 11:00:10;;;;;;;;;;;;;;;3.06;100.00;100783.44;5078155;28;19916;-62
2022/12/08 11:02:35;;;;;;;;;;;;;;;3.10;100.00;100784.03;5081602;28;19924;-63
2022/12/08 11:05:00;;;;;;;;;;;;;;;3.10;100.00;100782.22;5083364;28;19945;-64
2022/12/08 11:07:26;;;;;;;;;;;;;;;3.09;100.00;100780.56;5087364;28;19920;-63
2022/12/08 11:09:57;;;;;;;;;;;;;;;3.10;100.00;100768.28;5083665;28;20007;-62
2022/12/08 11:12:25;;;;;;;;;;;;;;;3.12;100.00;100766.38;5087359;28;19917;-63
2022/12/08 11:14:54;;;;;;;;;;;;;;;3.16;100.00;100769.56;5084106;28;19960;-63
2022/12/08 11:17:24;;;;;;;;;;;;;;;3.19;100.00;100764.94;5082980;28;19947;-62
2022/12/08 11:19:58;;;;;;;;;;;;;;;3.18;100.00;100767.66;5081931;28;19939;-63
2022/12/08 11:22:25;;;;;;;;;;;;;;;3.18;100.00;100755.41;5087490;28;19959;-62
2022/12/08 11:25:05;;;;;;;;;;;;;;;3.21;100.00;100756.94;5083303;28;20418;-65
2022/12/08 11:27:31;;;;;;;;;;;;;;;3.21;100.00;100760.41;5092264;28;19926;-62
2022/12/08 11:29:56;;;;;;;;;;;;;;;3.25;100.00;100753.94;5085187;28;20003;-63
2022/12/08 11:32:22;;;;;;;;;;;;;;;3.15;100.00;100757.41;5081938;28;19955;-62
2022/12/08 11:34:47;;;;;;;;;;;;;;;3.08;100.00;100757.91;5087360;28;20440;-62
2022/12/08 11:37:22;;;;;;;;;;;;;;;3.01;100.00;100748.88;5089203;28;19941;-63
2022/12/08 11:39:49;;;;;;;;;;;;;;;2.98;100.00;100749.13;5082475;28;19916;-62
2022/12/08 11:42:17;;;;;;;;;;;;;;;2.96;100.00;100751.06;5089506;28;19916;-63
2022/12/08 11:44:49;;;;;;;;;;;;;;;2.93;100.00;100748.69;5088380;28;20332;-63
2022/12/08 11:47:14;;;;;;;;;;;;;;;2.92;100.00;100741.78;5081785;28;20061;-63
2022/12/08 11:49:40;;;;;;;;;;;;;;;2.93;100.00;100742.59;5083923;28;19913;-62
2022/12/08 11:52:06;;;;;;;;;;;;;;;2.95;100.00;100738.91;5086216;28;20447;-62
2022/12/08 11:54:39;;;;;;;;;;;;;;;2.97;100.00;100738.78;5088843;28;20006;-62
2022/12/08 11:57:07;;;;;;;;;;;;;;;3.00;100.00;100741.13;5089108;28;19978;-65
2022/12/08 11:59:43;;;;;;;;;;;;;;;3.02;100.00;100741.84;5083688;28;20331;-62
2022/12/08 12:02:12;;;;;;;;;;;;;;;2.99;100.00;100740.31;5086422;28;19971;-62
2022/12/08 12:04:48;;;;;;;;;;;;;;;3.02;100.00;100728.72;5080306;28;19920;-63
2022/12/08 12:07:13;;;;;;;;;;;;;;;3.06;100.00;100724.91;5081760;28;19920;-63
2022/12/08 12:09:59;;;;;;;;;;;;;;;3.07;100.00;100726.56;5083505;28;19939;-63
2022/12/08 12:12:30;;;;;;;;;;;;;;;3.09;100.00;100724.66;5079116;28;19927;-63
2022/12/08 12:15:01;;;;;;;;;;;;;;;3.10;100.00;100727.13;5080976;28;19954;-63
2022/12/08 12:17:45;;;;;;;;;;;;;;;3.09;100.00;100724.66;5078186;28;19913;-64
2022/12/08 12:20:14;;;;;;;;;;;;;;;3.08;100.00;100723.81;5081782;28;19923;-63
2022/12/08 12:22:40;;;;;;;;;;;;;;;3.11;100.00;100717.47;5082366;28;19916;-62
2022/12/08 12:25:15;;;;;;;;;;;;;;;3.12;100.00;100727.00;5088847;28;20379;-64
2022/12/08 12:27:40;;;;;;;;;;;;;;;3.10;100.00;100721.91;5087389;28;20327;-63
2022/12/08 12:30:07;;;;;;;;;;;;;;;3.14;100.00;100719.84;5081477;28;19912;-63
2022/12/08 12:32:44;;;;;;;;;;;;;;;3.11;100.00;100715.69;5082366;28;19920;-62
2022/12/08 12:35:19;;;;;;;;;;;;;;;3.10;100.00;100721.91;5082725;28;20001;-62
2022/12/08 12:37:47;;;;;;;;;;;;;;;3.04;100.00;100701.41;5087789;28;19916;-62
2022/12/08 12:40:21;;;;;;;;;;;;;;;3.06;100.00;100706.53;5084032;28;19920;-63
2022/12/08 12:43:06;;;;;;;;;;;;;;;3.08;100.00;100702.81;5079210;28;19977;-64